Chattanooga, TN

12:54 AM EDT on September 21, 2014 (GMT -0400)
Lazard St | Change Station
CLOSE
Current Station
Personal Weather Station
Location: East Ridge, TN
Elevation: 722 ft
Nearby Weather Stations

Elev 722 ft 34.99 °N, 85.24 °W | Updated 8 seconds ago

Partly Cloudy
Partly Cloudy
65.1 °F
Feels Like 65.1 °F
N
0.0
Wind Variable Wind from SSE
Gusts 0.0 mph

Today
High -- | Low -- °F
--% Chance of Precip.
Yesterday
High -- | Low -- °F
Precip. -- in
7:28 AM 7:39 PM
Waning Crescent, 8% visible
Pressure 30.06 in
Visibility 10.0 miles
Clouds Scattered Clouds 5500 ft
Scattered Clouds 25000 ft
Dew Point 61 °F
Humidity 87%
Rainfall 0.00 in
Snow Depth Not available.
UV 0 out of 12
Pollen 6.90 out of 12
Ozone Good
PM2.5 Good
Flu Activity Not available.
METAR KCHA 210353Z 00000KT 10SM SCT055 SCT250 20/17 A3007 RMK AO2 SLP177 LAST T02000172

More Conditions Fewer Conditions

Pressure 30.06 in
Visibility 10.0 miles
Clouds Scattered Clouds 5500 ft
Scattered Clouds 25000 ft
Dew Point 61 °F
Humidity 87%
Rainfall 0.00 in
Snow Depth Not available.
UV 0 out of 12
Pollen 6.90 out of 12
Ozone Good
PM2.5 Good
Flu Activity Not available.
METAR KCHA 210353Z 00000KT 10SM SCT055 SCT250 20/17 A3007 RMK AO2 SLP177 LAST T02000172

More Conditions Fewer Conditions

10-Day Weather Forecast

Almanac

Astronomy

Sep. 21, 2014 Rise Set
Actual Time 7:28 AM EDT 7:39 PM EDT
Civil Twilight 7:03 AM EDT 8:04 PM EDT
Nautical Twilight 6:33 AM EDT 8:34 PM EDT
Astronomical Twilight 6:03 AM EDT 9:04 PM EDT
Moon 5:05 AM EDT 6:11 PM EDT
Length of Visible Light 13h 01m
Length of Day
12h 10m
Tomorrow will be 2m 12s shorter.
Waning Crescent, 8% of the Moon is Illuminated
Today
Waning Crescent
Sep 24
New
Oct 1
First Quarter
Oct 8
Full
Oct 15
Last Quarter

Today's Extremes

State Highs State Lows

Community

WunderPhotos

Upload Photos

1,755,086 photos uploaded!

Nearby

Air Quality

  Air Quality AQ Index Pollutant
Yesterday Moderate
PM2.5
Yesterday Good
OZONE
Current Good
PM2.5
Current Good
OZONE
Saturday Moderate
PM2.5
Saturday Good
OZONE
Sunday Moderate
PM2.5
Sunday Good
OZONE
Monday Good
OZONE
Monday Good
PM2.5

Snow Depth

Station Depth Elevation
No new snow has been reported.

Earthquake Activity

City Distance Mag. Time & Date
Sweetwater, Tennessee 59 miles 2.5 3:54 PM EDT
2014-09-20
Minimum magnitude displayed is 2.5.

Coastal Water Temperatures

Place Temperature
No Stations Reporting

Nearby Weather Stations